Frankfort, New York
Current Conditions -  °F | °C
As of 11:15 PM on Wednesday 26 Nov 2014 (Local Time) from KRME Reporting Station
Light Snow Light Snow  
Wind Chill: 23°   Ceiling: 2200
Heat Index: 29°   Visibility: 2mi
Dew Point: 27°   Wind: 6mph
Humidity: 92%   Direction: 290°WNW
Pressure: 29.97"   Gusts: NA
Location:  43.04°N, 75.07°W
Report Text: KRME 270415Z AUTO 29005KT 2SM -SN BR FEW010 FEW015 OVC022 M02/M03 A2997 RMK AO2 P0001 T10171028
Loading
Personal Weather Stations






























Interactive Weather Map New forecast layout! Learn more

10-Day Weather Forecast

Advertisements
Track Severe Weather on mobile